createdAt,value
2023-04-30T00:03:11.440Z,7.84
2023-04-30T00:08:08.198Z,7.79
2023-04-30T00:13:14.138Z,7.72
2023-04-30T00:18:11.253Z,7.80
2023-04-30T00:23:07.946Z,7.65
2023-04-30T00:28:08.580Z,7.74
2023-04-30T00:33:08.437Z,7.63
2023-04-30T00:38:08.321Z,7.50
2023-04-30T00:43:36.084Z,7.61
2023-04-30T00:48:32.910Z,7.42
2023-04-30T00:53:29.772Z,7.46
2023-04-30T00:58:27.735Z,7.45
2023-04-30T01:03:36.537Z,7.33
2023-04-30T01:08:34.040Z,7.31
2023-04-30T01:13:56.783Z,7.43
2023-04-30T01:19:00.592Z,7.35
2023-04-30T01:24:33.507Z,7.31
2023-04-30T01:29:31.156Z,7.15
2023-04-30T01:34:34.320Z,7.21
2023-04-30T01:40:09.946Z,7.29
2023-04-30T01:45:15.621Z,7.23
2023-04-30T01:50:30.838Z,7.17
2023-04-30T01:55:38.413Z,7.12
2023-04-30T02:00:48.107Z,7.14
2023-04-30T02:05:45.076Z,7.08
2023-04-30T02:10:41.770Z,7.04
2023-04-30T02:15:38.670Z,6.87
2023-04-30T02:20:41.506Z,6.82
2023-04-30T02:25:39.135Z,6.77
2023-04-30T02:30:35.878Z,6.74
2023-04-30T02:35:42.445Z,6.77
2023-04-30T02:40:44.952Z,6.65
2023-04-30T02:46:00.288Z,6.79
2023-04-30T02:50:57.138Z,6.65
2023-04-30T02:55:53.773Z,6.55
2023-04-30T03:00:50.441Z,6.57
2023-04-30T03:05:52.921Z,6.55
2023-04-30T03:16:35.580Z,6.68
2023-04-30T03:21:32.686Z,6.49
2023-04-30T03:26:29.500Z,6.46
2023-04-30T03:31:26.403Z,6.59
2023-04-30T03:36:23.289Z,6.59
2023-04-30T03:41:22.036Z,6.45
2023-04-30T03:46:30.026Z,6.55
2023-04-30T03:51:28.525Z,6.42
2023-04-30T03:56:26.229Z,6.38
2023-04-30T04:01:23.063Z,6.32
2023-04-30T04:06:19.965Z,6.35
2023-04-30T04:11:16.786Z,6.35
2023-04-30T04:16:15.080Z,6.51
2023-04-30T04:21:11.966Z,6.51
2023-04-30T04:26:08.668Z,6.35
2023-04-30T04:31:15.919Z,6.33
2023-04-30T04:36:12.704Z,6.43
2023-04-30T04:41:11.723Z,6.45
2023-04-30T04:46:09.634Z,6.49
2023-04-30T04:51:08.260Z,6.67
2023-04-30T04:56:05.744Z,6.75
2023-04-30T05:01:02.563Z,6.83
2023-04-30T05:05:59.281Z,6.82
2023-04-30T05:11:18.690Z,7.01
2023-04-30T05:16:21.974Z,7.20
2023-04-30T05:21:18.517Z,7.36
2023-04-30T05:26:31.572Z,7.57
2023-04-30T05:31:28.062Z,7.74
2023-04-30T05:36:24.577Z,7.97
2023-04-30T05:41:22.041Z,8.03
2023-04-30T05:46:19.054Z,8.28
2023-04-30T05:51:16.062Z,8.48
2023-04-30T05:56:13.621Z,8.91
2023-04-30T06:01:11.202Z,9.40
2023-04-30T06:06:08.145Z,10.76
2023-04-30T06:11:05.389Z,12.05
2023-04-30T06:16:05.468Z,13.15
2023-04-30T06:21:02.285Z,14.15
2023-04-30T06:26:44.616Z,15.06
2023-04-30T06:31:41.445Z,15.63
2023-04-30T06:37:15.368Z,16.25
2023-04-30T06:42:12.124Z,16.48
2023-04-30T06:47:11.770Z,16.62
2023-04-30T06:52:12.024Z,16.29
2023-04-30T06:57:12.440Z,16.22
2023-04-30T07:03:10.312Z,15.32
2023-04-30T07:08:07.487Z,14.72
2023-04-30T07:14:04.226Z,14.33
2023-04-30T07:19:04.369Z,13.57
2023-04-30T07:24:01.140Z,13.21
2023-04-30T07:29:38.839Z,13.17
2023-04-30T07:34:35.582Z,12.79
2023-04-30T07:39:32.463Z,12.72
2023-04-30T07:44:32.485Z,12.68
2023-04-30T07:54:42.663Z,12.23
2023-04-30T07:59:39.423Z,12.15
2023-04-30T08:19:58.085Z,12.03
2023-04-30T08:24:55.802Z,12.01
2023-04-30T08:29:52.539Z,11.97
2023-04-30T08:34:49.175Z,11.94
2023-04-30T08:39:45.598Z,11.94
2023-04-30T08:44:46.747Z,11.92
2023-04-30T08:49:43.750Z,11.96
2023-04-30T08:54:40.330Z,11.91
2023-04-30T08:59:36.948Z,11.90
2023-04-30T09:04:33.485Z,11.82
2023-04-30T09:09:33.258Z,11.85
2023-04-30T09:14:29.793Z,11.80
2023-04-30T09:19:30.858Z,11.70
2023-04-30T09:24:27.287Z,11.73
2023-04-30T09:29:36.598Z,11.75
2023-04-30T09:34:36.053Z,11.80
2023-04-30T09:39:32.519Z,11.79
2023-04-30T09:44:31.416Z,11.80
2023-04-30T09:49:28.117Z,11.74
2023-04-30T09:54:25.940Z,11.82
2023-04-30T09:59:25.830Z,11.88
2023-04-30T10:04:22.544Z,11.90
2023-04-30T10:09:18.949Z,11.97
2023-04-30T10:14:17.958Z,11.96
2023-04-30T10:19:20.945Z,11.93
2023-04-30T10:24:19.295Z,11.91
2023-04-30T10:29:17.394Z,11.96
2023-04-30T10:34:26.883Z,12.13
2023-04-30T10:39:24.055Z,12.20
2023-04-30T10:44:25.617Z,12.12
2023-04-30T10:49:26.085Z,12.09
2023-04-30T10:54:27.707Z,12.03
2023-04-30T10:59:24.362Z,12.16
2023-04-30T11:04:20.855Z,12.25
2023-04-30T11:09:17.425Z,12.34
2023-04-30T11:14:20.404Z,12.41
2023-04-30T11:19:16.971Z,12.43
2023-04-30T11:24:13.413Z,12.44
2023-04-30T11:29:09.944Z,12.48
2023-04-30T11:34:07.145Z,12.52
2023-04-30T11:39:06.161Z,12.64
2023-04-30T11:44:02.591Z,12.63
2023-04-30T11:48:59.833Z,12.66
2023-04-30T11:53:57.156Z,12.68
2023-04-30T11:58:55.822Z,12.66
2023-04-30T12:03:55.117Z,12.69
2023-04-30T12:08:56.251Z,12.74
2023-04-30T12:13:56.865Z,12.73
2023-04-30T12:18:53.394Z,12.78
2023-04-30T12:23:50.039Z,12.85
2023-04-30T12:28:49.915Z,12.85
2023-04-30T12:33:54.509Z,12.81
2023-04-30T12:39:01.827Z,12.91
2023-04-30T12:44:33.656Z,12.94
2023-04-30T12:49:30.801Z,12.95
2023-04-30T12:54:31.517Z,12.98
2023-04-30T12:59:39.406Z,13.02
2023-04-30T13:04:36.454Z,13.03
2023-04-30T13:09:37.292Z,13.00
2023-04-30T13:14:33.971Z,12.96
2023-04-30T13:19:30.456Z,12.96
2023-04-30T13:24:27.003Z,12.96
2023-04-30T13:29:23.636Z,13.00
2023-04-30T13:34:20.230Z,13.09
2023-04-30T13:39:17.165Z,13.17
2023-04-30T13:44:13.651Z,13.26
2023-04-30T13:49:10.098Z,13.22
2023-04-30T13:54:06.712Z,13.26
2023-04-30T13:59:03.258Z,13.26
2023-04-30T14:03:59.964Z,13.34
2023-04-30T14:08:57.335Z,13.35
2023-04-30T14:13:54.496Z,13.34
2023-04-30T14:18:54.973Z,13.36
2023-04-30T14:23:52.184Z,13.42
2023-04-30T14:28:48.716Z,13.46
2023-04-30T14:33:45.498Z,13.53
2023-04-30T14:38:42.056Z,13.55
2023-04-30T14:43:38.578Z,13.58
2023-04-30T14:48:35.054Z,13.66
2023-04-30T14:53:32.938Z,13.71
2023-04-30T14:58:29.364Z,13.63
2023-04-30T15:03:26.080Z,13.68
2023-04-30T15:08:22.659Z,13.75
2023-04-30T15:13:19.152Z,13.83
2023-04-30T15:18:15.885Z,13.81
2023-04-30T15:23:12.482Z,13.82
2023-04-30T15:28:08.824Z,13.86
2023-04-30T15:33:05.347Z,13.83
2023-04-30T15:38:01.727Z,13.84
2023-04-30T15:42:58.199Z,13.80
2023-04-30T15:47:54.881Z,13.83
2023-04-30T15:52:51.170Z,13.84
2023-04-30T15:57:47.638Z,13.82
2023-04-30T16:02:44.185Z,13.74
2023-04-30T16:07:43.771Z,13.73
2023-04-30T16:12:41.112Z,13.69
2023-04-30T16:17:37.598Z,13.75
2023-04-30T16:22:34.458Z,13.75
2023-04-30T16:27:37.601Z,13.74
2023-04-30T16:32:34.275Z,13.77
2023-04-30T16:37:31.072Z,13.78
2023-04-30T16:42:32.566Z,13.73
2023-04-30T16:47:30.035Z,13.73
2023-04-30T16:52:38.618Z,13.71
2023-04-30T16:57:42.020Z,13.63
2023-04-30T17:02:48.881Z,13.65
2023-04-30T17:07:58.753Z,13.63
2023-04-30T17:12:57.587Z,13.63
2023-04-30T17:18:03.903Z,13.62
2023-04-30T17:23:01.632Z,13.45
2023-04-30T17:28:12.982Z,13.51
2023-04-30T17:33:23.800Z,13.42
2023-04-30T17:38:25.590Z,13.54
2023-04-30T17:55:02.613Z,13.31
2023-04-30T18:00:30.730Z,13.37
2023-04-30T18:05:42.883Z,13.17
2023-04-30T18:17:02.651Z,13.22
2023-04-30T18:41:07.995Z,12.76
2023-04-30T18:46:35.989Z,12.69
2023-04-30T18:51:50.038Z,12.71
2023-04-30T18:57:48.640Z,12.77
2023-04-30T19:03:08.032Z,12.49
2023-04-30T19:13:59.028Z,12.53
2023-04-30T19:18:58.260Z,12.38
2023-04-30T19:24:24.744Z,12.26
2023-04-30T19:29:30.590Z,12.33
2023-04-30T19:34:52.676Z,12.28
2023-04-30T19:40:22.112Z,12.10
2023-04-30T19:45:27.590Z,12.01
2023-04-30T19:51:15.246Z,12.07
2023-04-30T20:01:40.004Z,11.68
2023-04-30T20:06:36.570Z,11.69
2023-04-30T20:11:33.104Z,11.73
2023-04-30T20:16:29.673Z,11.66
2023-04-30T20:21:26.173Z,11.60
2023-04-30T20:26:25.477Z,11.51
2023-04-30T20:31:21.993Z,11.47
2023-04-30T20:36:20.216Z,11.39
2023-04-30T20:41:17.067Z,11.33
2023-04-30T20:46:14.719Z,11.27
2023-04-30T20:51:11.197Z,11.21
2023-04-30T20:56:07.977Z,11.20
2023-04-30T21:01:04.379Z,11.17
2023-04-30T21:06:00.939Z,11.09
2023-04-30T21:10:57.464Z,11.03
2023-04-30T21:15:54.847Z,10.99
2023-04-30T21:20:51.462Z,10.93
2023-04-30T21:25:48.232Z,10.88
2023-04-30T21:30:44.713Z,10.84
2023-04-30T21:35:42.271Z,10.79
2023-04-30T21:40:41.071Z,10.72
2023-04-30T21:45:37.639Z,10.74
2023-04-30T21:50:34.351Z,10.66
2023-04-30T21:55:31.074Z,10.60
2023-04-30T22:00:28.003Z,10.55
2023-04-30T22:05:24.505Z,10.49
2023-04-30T22:10:21.282Z,10.41
2023-04-30T22:15:17.749Z,10.28
2023-04-30T22:20:14.525Z,10.34
2023-04-30T22:25:10.969Z,10.26
2023-04-30T22:30:07.851Z,10.16
2023-04-30T22:35:04.554Z,10.12
2023-04-30T22:40:01.761Z,9.95
2023-04-30T22:44:59.027Z,9.96
2023-04-30T22:49:56.331Z,9.95
2023-04-30T22:54:53.001Z,9.92
2023-04-30T22:59:49.654Z,9.85
2023-04-30T23:04:49.511Z,9.83
2023-04-30T23:09:45.959Z,9.74
2023-04-30T23:14:42.483Z,9.67
2023-04-30T23:19:38.948Z,9.59
2023-04-30T23:24:35.899Z,9.58
2023-04-30T23:29:33.299Z,9.55
2023-04-30T23:34:34.250Z,9.47
2023-04-30T23:39:30.775Z,9.42
2023-04-30T23:44:27.226Z,9.38
2023-04-30T23:49:26.396Z,9.28
2023-04-30T23:54:23.264Z,9.26
2023-04-30T23:59:28.665Z,9.23
